createdAt,value
2023-12-26T00:02:17.641Z,-9.90
2023-12-26T00:04:44.351Z,-9.87
2023-12-26T00:07:11.099Z,-9.88
2023-12-26T00:09:43.829Z,-9.91
2023-12-26T00:12:10.612Z,-9.90
2023-12-26T00:14:38.277Z,-9.90
2023-12-26T00:17:05.018Z,-9.93
2023-12-26T00:19:31.795Z,-9.94
2023-12-26T00:21:58.569Z,-9.96
2023-12-26T00:24:25.258Z,-10.00
2023-12-26T00:26:52.022Z,-10.06
2023-12-26T00:29:18.756Z,-10.10
2023-12-26T00:31:45.495Z,-10.14
2023-12-26T00:34:12.351Z,-10.20
2023-12-26T00:36:39.172Z,-10.21
2023-12-26T00:39:06.939Z,-10.18
2023-12-26T00:41:35.555Z,-10.22
2023-12-26T00:44:02.220Z,-10.28
2023-12-26T00:46:28.991Z,-10.31
2023-12-26T00:48:55.833Z,-10.32
2023-12-26T00:51:23.645Z,-10.37
2023-12-26T00:53:50.388Z,-10.39
2023-12-26T00:56:17.401Z,-10.40
2023-12-26T00:58:45.280Z,-10.41
2023-12-26T01:01:12.152Z,-10.43
2023-12-26T01:03:39.145Z,-10.42
2023-12-26T01:06:06.160Z,-10.41
2023-12-26T01:08:34.415Z,-10.35
2023-12-26T01:11:01.145Z,-10.24
2023-12-26T01:13:31.259Z,-10.21
2023-12-26T01:15:57.993Z,-10.24
2023-12-26T01:18:24.755Z,-10.27
2023-12-26T01:20:51.581Z,-10.29
2023-12-26T01:23:18.245Z,-10.33
2023-12-26T01:25:45.105Z,-10.38
2023-12-26T01:28:11.771Z,-10.43
2023-12-26T01:30:41.647Z,-10.48
2023-12-26T01:33:08.756Z,-10.48
2023-12-26T01:35:35.645Z,-10.38
2023-12-26T01:38:02.924Z,-10.22
2023-12-26T01:40:29.609Z,-10.21
2023-12-26T01:42:56.545Z,-10.24
2023-12-26T01:45:23.356Z,-10.30
2023-12-26T01:47:52.411Z,-10.40
2023-12-26T01:50:19.319Z,-10.47
2023-12-26T01:52:46.131Z,-10.49
2023-12-26T01:55:14.963Z,-10.51
2023-12-26T01:57:42.413Z,-10.54
2023-12-26T02:00:09.623Z,-10.63
2023-12-26T02:02:39.489Z,-10.70
2023-12-26T02:05:06.663Z,-10.69
2023-12-26T02:07:33.356Z,-10.67
2023-12-26T02:10:01.719Z,-10.66
2023-12-26T02:12:28.456Z,-10.60
2023-12-26T02:14:55.341Z,-10.43
2023-12-26T02:17:25.835Z,-10.35
2023-12-26T02:19:53.098Z,-10.40
2023-12-26T02:22:19.924Z,-10.43
2023-12-26T02:24:48.753Z,-10.48
2023-12-26T02:27:24.165Z,-10.56
2023-12-26T02:29:53.035Z,-10.61
2023-12-26T02:32:20.913Z,-10.67
2023-12-26T02:34:48.755Z,-10.76
2023-12-26T02:37:15.650Z,-10.76
2023-12-26T02:39:44.516Z,-10.76
2023-12-26T02:42:12.377Z,-10.74
2023-12-26T02:44:39.494Z,-10.80
2023-12-26T02:47:06.239Z,-10.92
2023-12-26T02:49:32.946Z,-10.98
2023-12-26T02:51:59.669Z,-10.96
2023-12-26T02:54:26.438Z,-11.01
2023-12-26T02:56:53.970Z,-11.04
2023-12-26T02:59:20.699Z,-11.00
2023-12-26T03:01:47.540Z,-10.98
2023-12-26T03:04:14.204Z,-10.91
2023-12-26T03:06:41.129Z,-10.81
2023-12-26T03:09:08.034Z,-10.64
2023-12-26T03:11:34.704Z,-10.51
2023-12-26T03:14:01.867Z,-10.45
2023-12-26T03:16:28.710Z,-10.46
2023-12-26T03:18:55.610Z,-10.47
2023-12-26T03:21:22.904Z,-10.44
2023-12-26T03:23:51.299Z,-10.47
2023-12-26T03:26:18.042Z,-10.52
2023-12-26T03:28:44.716Z,-10.59
2023-12-26T03:31:14.305Z,-10.65
2023-12-26T03:33:41.451Z,-10.69
2023-12-26T03:36:09.647Z,-10.74
2023-12-26T03:38:37.995Z,-10.82
2023-12-26T03:41:04.856Z,-10.89
2023-12-26T03:43:32.058Z,-10.86
2023-12-26T03:45:58.957Z,-10.83
2023-12-26T03:48:25.781Z,-10.81
2023-12-26T03:50:52.553Z,-10.79
2023-12-26T03:53:19.384Z,-10.79
2023-12-26T03:55:47.979Z,-10.81
2023-12-26T03:58:16.516Z,-10.86
2023-12-26T04:00:43.209Z,-10.93
2023-12-26T04:03:10.496Z,-10.99
2023-12-26T04:05:37.428Z,-11.01
2023-12-26T04:08:05.278Z,-11.10
2023-12-26T04:10:32.164Z,-11.19
2023-12-26T04:12:58.921Z,-11.21
2023-12-26T04:15:25.875Z,-11.27
2023-12-26T04:17:53.346Z,-11.35
2023-12-26T04:20:20.139Z,-11.44
2023-12-26T04:22:46.940Z,-11.50
2023-12-26T04:25:13.652Z,-11.48
2023-12-26T04:27:40.400Z,-11.44
2023-12-26T04:30:07.882Z,-11.40
2023-12-26T04:32:35.616Z,-11.37
2023-12-26T04:35:02.879Z,-11.38
2023-12-26T04:37:29.846Z,-11.51
2023-12-26T04:39:56.507Z,-11.58
2023-12-26T04:42:23.297Z,-11.64
2023-12-26T04:44:50.150Z,-11.69
2023-12-26T04:47:17.904Z,-11.77
2023-12-26T04:49:44.730Z,-11.84
2023-12-26T04:52:11.523Z,-11.89
2023-12-26T04:54:38.175Z,-11.93
2023-12-26T04:57:05.033Z,-11.97
2023-12-26T04:59:31.728Z,-12.03
2023-12-26T05:01:58.480Z,-12.05
2023-12-26T05:04:25.136Z,-12.06
2023-12-26T05:06:52.456Z,-12.07
2023-12-26T05:09:19.354Z,-12.15
2023-12-26T05:11:46.165Z,-12.13
2023-12-26T05:14:12.846Z,-12.06
2023-12-26T05:16:45.718Z,-12.02
2023-12-26T05:19:13.012Z,-11.92
2023-12-26T05:21:39.993Z,-11.78
2023-12-26T05:24:07.026Z,-11.72
2023-12-26T05:26:41.026Z,-11.70
2023-12-26T05:29:08.294Z,-11.71
2023-12-26T05:31:34.945Z,-11.71
2023-12-26T05:34:03.735Z,-11.71
2023-12-26T05:36:30.780Z,-11.60
2023-12-26T05:38:58.482Z,-11.64
2023-12-26T05:41:26.320Z,-11.71
2023-12-26T05:43:53.359Z,-11.69
2023-12-26T05:46:21.605Z,-11.77
2023-12-26T05:48:48.988Z,-11.86
2023-12-26T05:51:15.951Z,-11.91
2023-12-26T05:53:42.984Z,-11.96
2023-12-26T05:56:09.810Z,-11.94
2023-12-26T05:58:36.586Z,-11.98
2023-12-26T06:01:03.421Z,-12.04
2023-12-26T06:03:30.279Z,-12.13
2023-12-26T06:05:57.067Z,-12.21
2023-12-26T06:08:24.602Z,-12.14
2023-12-26T06:10:51.369Z,-12.12
2023-12-26T06:13:18.094Z,-12.08
2023-12-26T06:15:46.975Z,-12.09
2023-12-26T06:18:13.980Z,-12.15
2023-12-26T06:20:40.739Z,-12.20
2023-12-26T06:23:07.520Z,-12.30
2023-12-26T06:25:34.253Z,-12.37
2023-12-26T06:28:01.762Z,-12.37
2023-12-26T06:30:28.584Z,-12.36
2023-12-26T06:32:55.653Z,-12.33
2023-12-26T06:35:22.557Z,-12.39
2023-12-26T06:37:49.287Z,-12.39
2023-12-26T06:40:16.005Z,-12.49
2023-12-26T06:42:42.873Z,-12.52
2023-12-26T06:45:09.796Z,-12.39
2023-12-26T06:47:36.663Z,-12.37
2023-12-26T06:50:03.404Z,-12.33
2023-12-26T06:52:30.164Z,-12.35
2023-12-26T06:54:57.300Z,-12.41
2023-12-26T06:57:24.038Z,-12.52
2023-12-26T06:59:53.289Z,-12.60
2023-12-26T07:02:20.518Z,-12.49
2023-12-26T07:04:47.236Z,-12.39
2023-12-26T07:07:14.338Z,-12.41
2023-12-26T07:09:41.043Z,-12.46
2023-12-26T07:12:08.182Z,-12.51
2023-12-26T07:14:34.987Z,-12.58
2023-12-26T07:17:01.695Z,-12.63
2023-12-26T07:19:28.496Z,-12.71
2023-12-26T07:21:55.283Z,-12.70
2023-12-26T07:24:22.097Z,-12.70
2023-12-26T07:26:48.977Z,-12.70
2023-12-26T07:29:15.764Z,-12.71
2023-12-26T07:31:42.447Z,-12.74
2023-12-26T07:34:12.355Z,-12.72
2023-12-26T07:36:39.214Z,-12.72
2023-12-26T07:39:06.485Z,-12.78
2023-12-26T07:41:33.554Z,-12.82
2023-12-26T07:44:00.483Z,-12.89
2023-12-26T07:46:27.200Z,-12.92
2023-12-26T07:48:54.154Z,-12.87
2023-12-26T07:51:21.109Z,-12.90
2023-12-26T07:53:48.765Z,-12.93
2023-12-26T07:56:15.612Z,-12.84
2023-12-26T07:58:42.287Z,-12.84
2023-12-26T08:01:09.103Z,-12.84
2023-12-26T08:03:35.906Z,-12.77
2023-12-26T08:06:02.953Z,-12.71
2023-12-26T08:08:29.713Z,-12.70
2023-12-26T08:10:56.448Z,-12.73
2023-12-26T08:13:23.130Z,-12.76
2023-12-26T08:15:49.829Z,-12.78
2023-12-26T08:18:16.761Z,-12.78
2023-12-26T08:20:43.619Z,-12.77
2023-12-26T08:23:10.393Z,-12.69
2023-12-26T08:25:38.600Z,-12.57
2023-12-26T08:28:05.884Z,-12.35
2023-12-26T08:30:35.457Z,-12.22
2023-12-26T08:33:05.591Z,-12.00
2023-12-26T08:35:32.980Z,-11.88
2023-12-26T08:37:59.660Z,-11.72
2023-12-26T08:40:29.123Z,-11.62
2023-12-26T08:42:56.129Z,-11.59
2023-12-26T08:45:23.009Z,-11.59
2023-12-26T08:47:51.054Z,-11.56
2023-12-26T08:50:17.971Z,-11.49
2023-12-26T08:52:44.759Z,-11.50
2023-12-26T08:55:11.400Z,-11.50
2023-12-26T08:57:38.177Z,-11.46
2023-12-26T09:00:06.226Z,-11.49
2023-12-26T09:02:32.980Z,-11.50
2023-12-26T09:05:00.699Z,-11.41
2023-12-26T09:07:27.716Z,-11.37
2023-12-26T09:09:54.415Z,-11.23
2023-12-26T09:12:21.274Z,-11.01
2023-12-26T09:14:48.104Z,-10.92
2023-12-26T09:17:14.915Z,-10.95
2023-12-26T09:19:42.325Z,-10.93
2023-12-26T09:22:09.377Z,-10.92
2023-12-26T09:24:36.076Z,-10.95
2023-12-26T09:27:02.877Z,-10.96
2023-12-26T09:29:29.590Z,-10.98
2023-12-26T09:31:56.310Z,-10.98
2023-12-26T09:34:23.376Z,-10.95
2023-12-26T09:36:50.199Z,-10.95
2023-12-26T09:39:17.004Z,-10.79
2023-12-26T09:41:44.524Z,-10.61
2023-12-26T09:44:11.988Z,-10.48
2023-12-26T09:46:38.909Z,-10.38
2023-12-26T09:49:15.457Z,-10.39
2023-12-26T09:51:46.935Z,-10.53
2023-12-26T09:54:14.008Z,-10.63
2023-12-26T09:56:44.017Z,-10.61
2023-12-26T09:59:11.032Z,-10.59
2023-12-26T10:01:37.711Z,-10.58
2023-12-26T10:04:06.443Z,-10.57
2023-12-26T10:06:33.383Z,-10.57
2023-12-26T10:09:00.635Z,-10.60
2023-12-26T10:11:28.678Z,-10.65
2023-12-26T10:13:55.891Z,-10.61
2023-12-26T10:16:22.812Z,-10.61
2023-12-26T10:18:51.593Z,-10.65
2023-12-26T10:21:18.728Z,-10.58
2023-12-26T10:23:46.592Z,-10.53
2023-12-26T10:26:13.299Z,-10.49
2023-12-26T10:28:42.748Z,-10.44
2023-12-26T10:31:14.955Z,-10.42
2023-12-26T10:33:42.447Z,-10.43
2023-12-26T10:36:12.029Z,-10.35
2023-12-26T10:38:40.454Z,-10.27
2023-12-26T10:41:09.693Z,-10.44
2023-12-26T10:43:43.561Z,-10.19
2023-12-26T10:46:10.562Z,-10.42
2023-12-26T10:48:38.241Z,-10.17
2023-12-26T10:51:07.078Z,-9.54
2023-12-26T10:53:50.551Z,-9.41
2023-12-26T10:56:18.790Z,-9.45
2023-12-26T10:58:45.729Z,-9.04
2023-12-26T11:02:14.392Z,-9.00
2023-12-26T11:05:58.286Z,-8.96
2023-12-26T11:09:40.004Z,-8.71
2023-12-26T11:13:21.419Z,-8.52
2023-12-26T11:17:03.305Z,-8.64
2023-12-26T11:20:44.983Z,-8.85
2023-12-26T11:24:26.697Z,-8.98
2023-12-26T11:28:08.868Z,-9.04
2023-12-26T11:31:50.713Z,-8.91
2023-12-26T11:35:32.046Z,-8.99
2023-12-26T11:39:14.162Z,-9.06
2023-12-26T11:42:55.506Z,-9.02
2023-12-26T11:46:37.108Z,-8.98
2023-12-26T11:50:18.860Z,-8.94
2023-12-26T11:54:00.908Z,-8.93
2023-12-26T11:57:42.418Z,-8.70
2023-12-26T12:01:24.220Z,-8.47
2023-12-26T12:05:06.029Z,-8.30
2023-12-26T12:08:47.675Z,-8.20
2023-12-26T12:12:29.429Z,-8.17
2023-12-26T12:16:11.118Z,-8.13
2023-12-26T12:19:52.919Z,-8.13
2023-12-26T12:23:34.789Z,-8.05
2023-12-26T12:27:16.542Z,-7.99
2023-12-26T12:30:57.834Z,-7.90
2023-12-26T12:34:39.301Z,-7.88
2023-12-26T12:38:21.186Z,-7.84
2023-12-26T12:42:02.845Z,-7.83
2023-12-26T12:45:44.743Z,-7.75
2023-12-26T12:49:26.215Z,-7.72
2023-12-26T12:53:07.837Z,-7.71
2023-12-26T12:56:49.540Z,-7.77
2023-12-26T13:00:31.247Z,-7.85
2023-12-26T13:04:13.300Z,-8.03
2023-12-26T13:07:54.536Z,-8.06
2023-12-26T13:11:35.799Z,-8.17
2023-12-26T13:15:17.841Z,-8.26
2023-12-26T13:19:00.228Z,-8.34
2023-12-26T13:22:41.599Z,-8.42
2023-12-26T13:26:23.073Z,-8.51
2023-12-26T13:30:04.968Z,-8.66
2023-12-26T13:33:46.692Z,-8.74
2023-12-26T13:37:28.331Z,-8.86
2023-12-26T13:41:10.198Z,-8.91
2023-12-26T13:44:52.135Z,-8.94
2023-12-26T13:48:33.756Z,-9.04
2023-12-26T13:51:56.369Z,-9.15
2023-12-26T13:55:00.639Z,-9.21
2023-12-26T13:57:27.431Z,-9.31
2023-12-26T14:00:32.252Z,-9.38
2023-12-26T14:02:59.432Z,-9.44
2023-12-26T14:06:04.090Z,-9.48
2023-12-26T14:08:30.877Z,-9.51
2023-12-26T14:10:57.619Z,-9.85
2023-12-26T14:14:01.996Z,-9.47
2023-12-26T14:16:28.783Z,-9.57
2023-12-26T14:18:55.645Z,-9.47
2023-12-26T14:22:00.055Z,-9.39
2023-12-26T14:24:26.823Z,-9.29
2023-12-26T14:26:56.431Z,-9.33
2023-12-26T14:30:00.681Z,-9.43
2023-12-26T14:32:27.691Z,-9.58
2023-12-26T14:35:31.884Z,-9.67
2023-12-26T14:37:58.748Z,-9.61
2023-12-26T14:41:03.569Z,-9.62
2023-12-26T14:43:30.359Z,-9.73
2023-12-26T14:46:34.499Z,-9.87
2023-12-26T14:49:01.351Z,-9.92
2023-12-26T14:52:05.435Z,-9.98
2023-12-26T14:55:10.614Z,-9.91
2023-12-26T14:57:38.004Z,-9.92
2023-12-26T15:00:42.298Z,-9.97
2023-12-26T15:03:09.687Z,-10.51
2023-12-26T15:05:36.542Z,-10.28
2023-12-26T15:08:04.259Z,-10.32
2023-12-26T15:10:32.283Z,-10.02
2023-12-26T15:13:01.435Z,-9.97
2023-12-26T15:15:28.395Z,-9.90
2023-12-26T15:17:55.831Z,-10.06
2023-12-26T15:20:23.353Z,-10.05
2023-12-26T15:22:50.769Z,-10.02
2023-12-26T15:25:17.662Z,-10.09
2023-12-26T15:27:44.549Z,-10.14
2023-12-26T15:30:12.210Z,-10.14
2023-12-26T15:32:39.348Z,-10.11
2023-12-26T15:35:07.189Z,-10.10
2023-12-26T15:37:34.820Z,-10.10
2023-12-26T15:40:01.881Z,-10.26
2023-12-26T15:42:29.410Z,-10.28
2023-12-26T15:44:56.305Z,-10.22
2023-12-26T15:47:23.625Z,-10.20
2023-12-26T15:49:50.828Z,-10.20
2023-12-26T15:52:17.771Z,-10.18
2023-12-26T15:54:44.677Z,-10.20
2023-12-26T15:57:11.598Z,-10.21
2023-12-26T15:59:38.474Z,-10.33
2023-12-26T16:02:06.082Z,-10.22
2023-12-26T16:04:33.102Z,-10.24
2023-12-26T16:07:00.080Z,-10.51
2023-12-26T16:09:29.778Z,-10.13
2023-12-26T16:11:57.672Z,-10.14
2023-12-26T16:14:27.519Z,-10.24
2023-12-26T16:16:54.595Z,-10.24
2023-12-26T16:19:21.573Z,-10.95
2023-12-26T16:21:48.506Z,-10.39
2023-12-26T16:24:15.363Z,-10.42
2023-12-26T16:26:47.377Z,-10.40
2023-12-26T16:29:14.451Z,-10.82
2023-12-26T16:31:41.368Z,-10.27
2023-12-26T16:34:08.427Z,-10.77
2023-12-26T16:36:35.453Z,-10.14
2023-12-26T16:39:02.415Z,-10.11
2023-12-26T16:41:29.340Z,-10.09
2023-12-26T16:43:56.088Z,-10.13
2023-12-26T16:46:23.038Z,-10.18
2023-12-26T16:48:50.137Z,-10.17
2023-12-26T16:51:17.184Z,-10.31
2023-12-26T16:53:44.116Z,-10.46
2023-12-26T16:56:11.795Z,-10.26
2023-12-26T16:58:42.685Z,-10.82
2023-12-26T17:01:10.655Z,-10.36
2023-12-26T17:03:39.988Z,-10.91
2023-12-26T17:06:07.301Z,-10.42
2023-12-26T17:08:34.313Z,-10.47
2023-12-26T17:11:03.927Z,-10.51
2023-12-26T17:13:33.422Z,-10.49
2023-12-26T17:16:00.240Z,-10.49
2023-12-26T17:18:27.271Z,-10.43
2023-12-26T17:20:54.174Z,-10.30
2023-12-26T17:23:21.027Z,-10.16
2023-12-26T17:25:47.910Z,-10.11
2023-12-26T17:28:17.985Z,-10.11
2023-12-26T17:30:45.960Z,-10.13
2023-12-26T17:33:13.040Z,-10.12
2023-12-26T17:35:39.904Z,-10.06
2023-12-26T17:38:06.688Z,-10.43
2023-12-26T17:40:33.792Z,-10.20
2023-12-26T17:43:00.530Z,-10.31
2023-12-26T17:45:29.990Z,-10.63
2023-12-26T17:47:57.422Z,-10.43
2023-12-26T17:50:24.550Z,-10.40
2023-12-26T17:52:52.313Z,-10.40
2023-12-26T17:55:20.634Z,-10.43
2023-12-26T17:57:48.054Z,-11.06
2023-12-26T18:00:15.324Z,-10.50
2023-12-26T18:02:42.291Z,-10.56
2023-12-26T18:05:09.439Z,-10.55
2023-12-26T18:07:37.364Z,-10.54
2023-12-26T18:10:04.605Z,-10.65
2023-12-26T18:12:31.539Z,-10.45
2023-12-26T18:14:58.636Z,-10.42
2023-12-26T18:17:25.739Z,-10.46
2023-12-26T18:19:55.693Z,-10.45
2023-12-26T18:22:23.081Z,-10.58
2023-12-26T18:24:50.678Z,-10.51
2023-12-26T18:27:17.708Z,-10.45
2023-12-26T18:29:44.512Z,-10.51
2023-12-26T18:32:11.421Z,-10.55
2023-12-26T18:34:38.623Z,-10.58
2023-12-26T18:37:06.173Z,-10.85
2023-12-26T18:39:34.303Z,-10.78
2023-12-26T18:42:01.193Z,-10.60
2023-12-26T18:44:28.256Z,-10.62
2023-12-26T18:46:55.164Z,-11.61
2023-12-26T18:49:22.012Z,-11.31
2023-12-26T18:51:48.938Z,-10.76
2023-12-26T18:54:15.852Z,-10.74
2023-12-26T18:56:42.725Z,-10.72
2023-12-26T18:59:09.981Z,-10.68
2023-12-26T19:01:45.475Z,-11.21
2023-12-26T19:04:12.751Z,-10.61
2023-12-26T19:06:40.040Z,-10.49
2023-12-26T19:09:07.703Z,-10.50
2023-12-26T19:11:34.513Z,-10.52
2023-12-26T19:14:01.358Z,-10.54
2023-12-26T19:16:28.365Z,-10.58
2023-12-26T19:18:55.292Z,-10.63
2023-12-26T19:21:22.178Z,-10.61
2023-12-26T19:23:49.131Z,-10.60
2023-12-26T19:26:15.990Z,-10.68
2023-12-26T19:28:42.920Z,-10.69
2023-12-26T19:31:14.555Z,-10.95
2023-12-26T19:33:41.618Z,-10.62
2023-12-26T19:36:09.067Z,-10.75
2023-12-26T19:38:39.958Z,-10.76
2023-12-26T19:41:07.156Z,-10.78
2023-12-26T19:43:34.025Z,-10.77
2023-12-26T19:46:00.940Z,-10.78
2023-12-26T19:48:28.258Z,-10.96
2023-12-26T19:50:55.491Z,-10.73
2023-12-26T19:53:22.464Z,-10.72
2023-12-26T19:55:49.581Z,-10.81
2023-12-26T19:58:16.391Z,-10.72
2023-12-26T20:00:43.326Z,-10.78
2023-12-26T20:03:18.696Z,-10.78
2023-12-26T20:05:58.466Z,-10.83
2023-12-26T20:08:26.318Z,-10.79
2023-12-26T20:10:53.141Z,-10.79
2023-12-26T20:13:20.267Z,-10.82
2023-12-26T20:15:47.251Z,-10.75
2023-12-26T20:18:14.262Z,-11.17
2023-12-26T20:20:41.105Z,-10.83
2023-12-26T20:23:09.007Z,-10.84
2023-12-26T20:25:35.832Z,-10.89
2023-12-26T20:28:08.468Z,-10.92
2023-12-26T20:30:35.853Z,-10.73
2023-12-26T20:33:04.424Z,-10.66
2023-12-26T20:35:31.308Z,-11.22
2023-12-26T20:37:58.382Z,-10.72
2023-12-26T20:40:25.402Z,-10.80
2023-12-26T20:42:52.241Z,-10.89
2023-12-26T20:45:19.141Z,-10.96
2023-12-26T20:47:46.027Z,-11.02
2023-12-26T20:50:12.931Z,-11.21
2023-12-26T20:52:39.664Z,-11.18
2023-12-26T20:55:07.925Z,-11.23
2023-12-26T20:57:34.757Z,-11.39
2023-12-26T21:00:01.828Z,-11.25
2023-12-26T21:02:28.806Z,-11.18
2023-12-26T21:04:55.584Z,-11.01
2023-12-26T21:07:22.833Z,-10.88
2023-12-26T21:09:49.697Z,-10.84
2023-12-26T21:12:16.495Z,-10.85
2023-12-26T21:14:43.310Z,-10.91
2023-12-26T21:17:10.985Z,-11.02
2023-12-26T21:19:39.896Z,-11.08
2023-12-26T21:22:08.709Z,-11.15
2023-12-26T21:24:35.624Z,-11.27
2023-12-26T21:27:02.455Z,-11.07
2023-12-26T21:29:29.544Z,-11.06
2023-12-26T21:31:56.299Z,-11.05
2023-12-26T21:34:23.180Z,-11.06
2023-12-26T21:36:49.951Z,-11.52
2023-12-26T21:39:19.765Z,-11.11
2023-12-26T21:41:46.631Z,-11.03
2023-12-26T21:44:15.121Z,-11.12
2023-12-26T21:46:46.323Z,-11.61
2023-12-26T21:49:14.547Z,-11.75
2023-12-26T21:51:41.658Z,-11.27
2023-12-26T21:54:08.676Z,-10.96
2023-12-26T21:56:35.469Z,-10.86
2023-12-26T21:59:02.241Z,-10.89
2023-12-26T22:01:31.189Z,-10.91
2023-12-26T22:03:59.126Z,-10.86
2023-12-26T22:06:26.234Z,-10.84
2023-12-26T22:08:53.224Z,-10.77
2023-12-26T22:11:20.808Z,-10.60
2023-12-26T22:13:47.780Z,-11.09
2023-12-26T22:16:23.442Z,-10.45
2023-12-26T22:18:54.077Z,-10.44
2023-12-26T22:21:21.983Z,-10.49
2023-12-26T22:23:48.810Z,-10.78
2023-12-26T22:26:15.588Z,-10.46
2023-12-26T22:28:42.393Z,-10.38
2023-12-26T22:31:20.386Z,-10.35
2023-12-26T22:33:52.526Z,-10.40
2023-12-26T22:36:20.138Z,-10.06
2023-12-26T22:38:46.941Z,-10.01
2023-12-26T22:41:19.938Z,-10.00
2023-12-26T22:43:46.820Z,-10.01
2023-12-26T22:46:23.755Z,-10.14
2023-12-26T22:48:54.572Z,-9.98
2023-12-26T22:51:22.142Z,-10.20
2023-12-26T22:53:49.197Z,-11.50
2023-12-26T22:56:16.141Z,-9.70
2023-12-26T22:58:43.342Z,-9.64
2023-12-26T23:01:10.701Z,-9.58
2023-12-26T23:03:39.066Z,-9.48
2023-12-26T23:06:06.002Z,-10.06
2023-12-26T23:08:32.882Z,-9.49
2023-12-26T23:10:59.668Z,-9.50
2023-12-26T23:13:26.698Z,-9.50
2023-12-26T23:15:53.942Z,-9.62
2023-12-26T23:18:20.813Z,-9.35
2023-12-26T23:20:47.645Z,-9.23
2023-12-26T23:23:14.498Z,-9.36
2023-12-26T23:25:41.360Z,-9.14
2023-12-26T23:28:08.226Z,-9.17
2023-12-26T23:30:35.052Z,-9.38
2023-12-26T23:33:02.026Z,-9.24
2023-12-26T23:35:28.908Z,-9.27
2023-12-26T23:37:56.001Z,-9.22
2023-12-26T23:40:22.921Z,-9.20
2023-12-26T23:42:49.641Z,-9.14
2023-12-26T23:45:16.488Z,-9.69
2023-12-26T23:47:44.788Z,-9.76
2023-12-26T23:50:11.690Z,-9.48
2023-12-26T23:52:42.092Z,-9.13
2023-12-26T23:55:11.214Z,-8.80
2023-12-26T23:57:38.096Z,-8.56
